createdAt,value
2018-06-19T00:01:33.835Z,13.23
2018-06-19T00:04:02.171Z,11.53
2018-06-19T00:06:30.473Z,9.73
2018-06-19T00:08:58.757Z,9.75
2018-06-19T00:11:27.581Z,6.80
2018-06-19T00:13:55.873Z,6.87
2018-06-19T00:16:24.205Z,12.17
2018-06-19T00:18:54.885Z,9.33
2018-06-19T00:21:31.865Z,9.07
2018-06-19T00:24:00.376Z,7.63
2018-06-19T00:26:28.693Z,10.50
2018-06-19T00:28:57.075Z,8.70
2018-06-19T00:31:25.380Z,11.53
2018-06-19T00:33:53.754Z,9.50
2018-06-19T00:36:22.089Z,5.83
2018-06-19T00:38:50.417Z,8.30
2018-06-19T00:41:18.701Z,9.77
2018-06-19T00:43:47.042Z,7.80
2018-06-19T00:46:16.423Z,11.10
2018-06-19T00:48:44.743Z,9.90
2018-06-19T00:51:13.122Z,8.87
2018-06-19T00:53:41.441Z,12.97
2018-06-19T00:56:20.959Z,12.70
2018-06-19T00:58:49.486Z,13.10
2018-06-19T01:01:17.845Z,12.10
2018-06-19T01:03:45.881Z,10.53
2018-06-19T01:06:14.237Z,15.72
2018-06-19T01:08:42.537Z,9.47
2018-06-19T01:11:10.932Z,12.90
2018-06-19T01:13:39.341Z,17.83
2018-06-19T01:16:07.742Z,10.87
2018-06-19T01:18:36.230Z,13.53
2018-06-19T01:21:05.329Z,12.53
2018-06-19T01:23:34.342Z,11.40
2018-06-19T01:26:02.715Z,14.70
2018-06-19T01:28:31.053Z,13.80
2018-06-19T01:30:59.472Z,13.73
2018-06-19T01:33:27.765Z,15.47
2018-06-19T01:35:56.137Z,14.07
2018-06-19T01:38:24.429Z,16.57
2018-06-19T01:40:52.738Z,15.10
2018-06-19T01:43:21.054Z,14.03
2018-06-19T01:45:49.354Z,12.67
2018-06-19T01:48:17.657Z,14.00
2018-06-19T01:50:45.708Z,16.77
2018-06-19T01:53:14.038Z,20.32
2018-06-19T01:55:42.409Z,17.45
2018-06-19T01:58:10.933Z,20.07
2018-06-19T02:00:39.244Z,12.07
2018-06-19T02:03:07.380Z,20.53
2018-06-19T02:05:35.787Z,12.87
2018-06-19T02:08:04.093Z,13.27
2018-06-19T02:10:32.484Z,17.87
2018-06-19T02:13:00.821Z,13.07
2018-06-19T02:15:29.137Z,16.33
2018-06-19T02:17:57.465Z,15.43
2018-06-19T02:20:25.845Z,19.47
2018-06-19T02:22:55.025Z,17.00
2018-06-19T02:25:23.445Z,17.27
2018-06-19T02:27:51.811Z,16.90
2018-06-19T02:30:20.135Z,16.00
2018-06-19T02:32:48.466Z,21.03
2018-06-19T02:35:16.825Z,19.87
2018-06-19T02:37:45.197Z,25.30
2018-06-19T02:40:13.741Z,25.07
2018-06-19T02:42:42.085Z,18.30
2018-06-19T02:45:10.455Z,21.70
2018-06-19T02:47:38.814Z,18.50
2018-06-19T02:50:07.162Z,22.70
2018-06-19T02:52:35.501Z,22.70
2018-06-19T02:55:03.825Z,19.43
2018-06-19T02:57:32.177Z,21.07
2018-06-19T03:00:00.469Z,24.33
2018-06-19T03:02:28.776Z,28.90
2018-06-19T03:04:57.213Z,21.40
2018-06-19T03:07:25.567Z,24.57
2018-06-19T03:09:53.917Z,25.67
2018-06-19T03:12:22.222Z,20.67
2018-06-19T03:14:50.561Z,23.30
2018-06-19T03:17:18.953Z,24.13
2018-06-19T03:19:47.434Z,26.03
2018-06-19T03:22:15.745Z,26.13
2018-06-19T03:24:44.081Z,29.73
2018-06-19T03:27:12.484Z,29.52
2018-06-19T03:29:40.849Z,28.67
2018-06-19T03:32:09.137Z,26.10
2018-06-19T03:34:37.489Z,31.12
2018-06-19T03:37:05.821Z,26.53
2018-06-19T03:39:34.221Z,29.30
2018-06-19T03:42:02.697Z,25.83
2018-06-19T03:44:31.069Z,27.13
2018-06-19T03:46:59.453Z,27.07
2018-06-19T03:49:27.841Z,31.33
2018-06-19T03:51:56.193Z,31.43
2018-06-19T03:54:24.625Z,27.13
2018-06-19T03:56:52.999Z,35.10
2018-06-19T03:59:21.313Z,31.87
2018-06-19T04:01:49.659Z,27.57
2018-06-19T04:04:18.453Z,30.17
2018-06-19T04:06:46.817Z,28.63
2018-06-19T04:09:15.201Z,29.87
2018-06-19T04:11:43.576Z,27.73
2018-06-19T04:14:11.924Z,28.60
2018-06-19T04:16:40.298Z,32.27
2018-06-19T04:19:08.736Z,33.07
2018-06-19T04:21:37.060Z,32.03
2018-06-19T04:24:05.481Z,39.70
2018-06-19T04:26:33.921Z,31.20
2018-06-19T04:29:02.300Z,29.90
2018-06-19T04:31:30.653Z,28.33
2018-06-19T04:33:58.989Z,33.20
2018-06-19T04:36:27.325Z,28.47
2018-06-19T04:38:55.669Z,35.10
2018-06-19T04:41:24.016Z,30.57
2018-06-19T04:43:52.905Z,33.27
2018-06-19T04:46:21.237Z,28.43
2018-06-19T04:48:50.725Z,32.33
2018-06-19T04:51:19.034Z,35.60
2018-06-19T04:53:47.349Z,30.57
2018-06-19T04:56:15.857Z,30.20
2018-06-19T04:58:44.190Z,33.07
2018-06-19T05:01:12.529Z,33.80
2018-06-19T05:03:40.911Z,29.03
2018-06-19T05:06:09.273Z,32.37
2018-06-19T05:08:37.614Z,32.17
2018-06-19T05:11:06.120Z,33.97
2018-06-19T05:13:35.330Z,33.30
2018-06-19T05:16:03.657Z,32.43
2018-06-19T05:18:32.061Z,32.10
2018-06-19T05:21:00.353Z,33.90
2018-06-19T05:23:28.699Z,36.40
2018-06-19T05:25:57.037Z,34.17
2018-06-19T05:28:25.401Z,33.93
2018-06-19T05:30:53.797Z,35.87
2018-06-19T05:33:22.285Z,31.70
2018-06-19T05:35:50.601Z,34.53
2018-06-19T05:38:18.921Z,35.37
2018-06-19T05:40:47.261Z,36.53
2018-06-19T05:43:15.597Z,33.07
2018-06-19T05:45:43.945Z,35.40
2018-06-19T05:48:12.021Z,35.47
2018-06-19T05:50:40.338Z,38.90
2018-06-19T05:53:08.669Z,40.83
2018-06-19T05:55:37.141Z,36.13
2018-06-19T05:58:05.482Z,33.57
2018-06-19T06:00:33.871Z,35.43
2018-06-19T06:03:01.952Z,33.63
2018-06-19T06:05:30.271Z,35.03
2018-06-19T06:07:58.617Z,33.37
2018-06-19T06:10:26.990Z,33.70
2018-06-19T06:12:55.321Z,36.13
2018-06-19T06:15:23.592Z,34.63
2018-06-19T06:17:51.901Z,41.37
2018-06-19T06:20:20.219Z,32.37
2018-06-19T06:22:48.566Z,34.83
2018-06-19T06:25:16.979Z,42.83
2018-06-19T06:27:45.301Z,37.77
2018-06-19T06:30:13.589Z,37.50
2018-06-19T06:32:42.352Z,37.93
2018-06-19T06:35:10.662Z,37.10
2018-06-19T06:37:38.972Z,37.27
2018-06-19T06:40:07.314Z,34.90
2018-06-19T06:42:35.600Z,39.47
2018-06-19T06:45:04.125Z,36.63
2018-06-19T06:47:32.481Z,37.67
2018-06-19T06:50:00.810Z,36.73
2018-06-19T06:52:29.129Z,32.00
2018-06-19T06:54:57.548Z,37.80
2018-06-19T06:57:25.932Z,32.93
2018-06-19T06:59:54.273Z,35.83
2018-06-19T07:02:22.756Z,35.23
2018-06-19T07:04:51.073Z,34.30
2018-06-19T07:07:19.460Z,36.93
2018-06-19T07:09:47.879Z,34.23
2018-06-19T07:12:16.232Z,33.50
2018-06-19T07:14:44.561Z,28.93
2018-06-19T07:17:13.006Z,31.33
2018-06-19T07:19:41.354Z,32.80
2018-06-19T07:22:09.654Z,32.37
2018-06-19T07:24:38.047Z,28.07
2018-06-19T07:27:06.454Z,33.47
2018-06-19T07:29:34.775Z,32.63
2018-06-19T07:32:03.167Z,32.57
2018-06-19T07:34:32.010Z,32.87
2018-06-19T07:37:00.314Z,27.40
2018-06-19T07:39:28.706Z,27.13
2018-06-19T07:41:57.062Z,27.17
2018-06-19T07:44:25.381Z,27.93
2018-06-19T07:46:53.783Z,26.40
2018-06-19T07:49:22.492Z,28.93
2018-06-19T07:51:50.833Z,29.87
2018-06-19T07:54:19.157Z,28.13
2018-06-19T07:56:47.457Z,26.33
2018-06-19T07:59:15.781Z,27.70
2018-06-19T08:01:44.283Z,29.60
2018-06-19T08:04:12.626Z,24.90
2018-06-19T08:06:40.960Z,27.37
2018-06-19T08:09:10.577Z,27.77
2018-06-19T08:11:38.921Z,25.33
2018-06-19T08:14:07.261Z,25.93
2018-06-19T08:16:35.589Z,27.70
2018-06-19T08:19:04.721Z,27.03
2018-06-19T08:21:33.068Z,27.03
2018-06-19T08:24:01.426Z,28.13
2018-06-19T08:26:30.065Z,25.63
2018-06-19T08:28:58.457Z,26.93
2018-06-19T08:31:27.146Z,24.70
2018-06-19T08:33:55.499Z,19.90
2018-06-19T08:36:24.658Z,17.13
2018-06-19T08:38:53.140Z,17.03
2018-06-19T08:41:21.921Z,11.03
2018-06-19T08:43:50.292Z,9.33
2018-06-19T08:46:19.165Z,6.80
2018-06-19T08:48:47.799Z,9.13
2018-06-19T08:51:16.345Z,6.67
2018-06-19T08:53:44.844Z,6.63
2018-06-19T08:56:13.156Z,9.77
2018-06-19T08:58:41.441Z,7.97
2018-06-19T09:01:10.002Z,7.27
2018-06-19T09:03:38.557Z,9.93
2018-06-19T09:06:07.077Z,9.17
2018-06-19T09:08:35.441Z,8.67
2018-06-19T09:11:04.131Z,8.20
2018-06-19T09:13:32.515Z,12.07
2018-06-19T09:16:01.057Z,7.90
2018-06-19T09:18:29.441Z,8.63
2018-06-19T09:20:57.850Z,11.07
2018-06-19T09:23:26.317Z,11.70
2018-06-19T09:25:55.020Z,9.70
2018-06-19T09:28:23.321Z,12.33
2018-06-19T09:30:52.201Z,11.97
2018-06-19T09:33:21.454Z,13.67
2018-06-19T09:35:49.755Z,9.60
2018-06-19T09:38:18.101Z,10.77
2018-06-19T09:40:46.419Z,8.97
2018-06-19T09:43:14.910Z,11.77
2018-06-19T09:45:43.705Z,9.20
2018-06-19T09:48:12.313Z,9.37
2018-06-19T09:50:40.746Z,10.10
2018-06-19T09:53:09.241Z,8.47
2018-06-19T09:55:37.977Z,10.67
2018-06-19T09:58:06.604Z,9.93
2018-06-19T10:00:36.422Z,11.27
2018-06-19T10:03:04.802Z,8.67
2018-06-19T10:05:33.350Z,8.80
2018-06-19T10:08:02.398Z,8.37
2018-06-19T10:10:30.733Z,7.97
2018-06-19T10:12:59.754Z,6.20
2018-06-19T10:15:28.157Z,5.57
2018-06-19T10:17:56.850Z,6.17
2018-06-19T10:20:25.160Z,9.47
2018-06-19T10:22:54.363Z,5.73
2018-06-19T10:25:22.801Z,8.33
2018-06-19T10:27:52.101Z,5.97
2018-06-19T10:30:20.510Z,6.00
2018-06-19T10:32:49.624Z,5.57
2018-06-19T10:35:17.949Z,7.30
2018-06-19T10:37:46.586Z,8.00
2018-06-19T10:40:15.259Z,7.70
2018-06-19T10:42:44.065Z,5.03
2018-06-19T10:45:12.533Z,6.10
2018-06-19T10:47:41.253Z,9.80
2018-06-19T10:50:09.647Z,4.90
2018-06-19T10:52:38.128Z,10.27
2018-06-19T10:55:06.404Z,8.97
2018-06-19T10:57:34.749Z,6.70
2018-06-19T11:00:03.362Z,8.23
2018-06-19T11:02:31.658Z,7.83
2018-06-19T11:05:00.525Z,7.47
2018-06-19T11:07:29.597Z,8.43
2018-06-19T11:09:58.788Z,8.17
2018-06-19T11:12:28.102Z,8.63
2018-06-19T11:14:56.548Z,9.47
2018-06-19T11:17:25.121Z,8.53
2018-06-19T11:19:53.460Z,9.17
2018-06-19T11:22:22.740Z,8.00
2018-06-19T11:24:51.056Z,9.30
2018-06-19T11:27:20.106Z,8.80
2018-06-19T11:29:48.529Z,8.60
2018-06-19T11:32:16.898Z,8.00
2018-06-19T11:34:45.377Z,8.90
2018-06-19T11:37:13.767Z,9.53
2018-06-19T11:39:42.528Z,8.57
2018-06-19T11:42:11.195Z,9.50
2018-06-19T11:44:39.903Z,9.53
2018-06-19T11:47:08.241Z,9.03
2018-06-19T11:49:36.539Z,7.63
2018-06-19T11:52:04.873Z,10.57
2018-06-19T11:54:33.364Z,9.43
2018-06-19T11:57:01.759Z,8.33
2018-06-19T11:59:30.108Z,8.27
2018-06-19T12:01:58.437Z,7.67
2018-06-19T12:04:26.754Z,11.17
2018-06-19T12:06:55.221Z,10.57
2018-06-19T12:09:23.509Z,12.40
2018-06-19T12:11:51.817Z,8.43
2018-06-19T12:14:20.141Z,9.90
2018-06-19T12:16:48.185Z,9.43
2018-06-19T12:19:16.534Z,8.83
2018-06-19T12:21:44.941Z,7.17
2018-06-19T12:24:13.265Z,9.80
2018-06-19T12:26:42.236Z,8.80
2018-06-19T12:29:10.896Z,7.60
2018-06-19T12:31:39.269Z,10.53
2018-06-19T12:34:07.585Z,9.80
2018-06-19T12:36:36.138Z,8.73
2018-06-19T12:39:07.717Z,7.20
2018-06-19T12:41:42.301Z,9.23
2018-06-19T12:44:11.225Z,9.43
2018-06-19T12:46:40.625Z,8.27
2018-06-19T12:49:11.173Z,7.77
2018-06-19T12:51:54.234Z,8.70
2018-06-19T12:55:31.473Z,9.57
2018-06-19T12:57:59.789Z,11.30
2018-06-19T13:00:28.133Z,8.47
2018-06-19T13:03:07.733Z,10.23
2018-06-19T13:05:47.281Z,9.27
2018-06-19T13:08:15.726Z,10.40
2018-06-19T13:10:44.093Z,8.13
2018-06-19T13:13:25.109Z,8.50
2018-06-19T13:15:54.345Z,9.97
2018-06-19T13:19:32.933Z,8.97
2018-06-19T13:22:02.242Z,10.67
2018-06-19T13:24:30.627Z,8.77
2018-06-19T13:26:59.137Z,9.80
2018-06-19T13:29:40.132Z,10.73
2018-06-19T13:32:08.509Z,15.27
2018-06-19T13:34:37.409Z,9.63
2018-06-19T13:37:06.169Z,7.93
2018-06-19T13:39:35.215Z,8.47
2018-06-19T13:42:15.545Z,10.23
2018-06-19T13:44:50.970Z,12.37
2018-06-19T13:47:19.604Z,11.70
2018-06-19T13:49:48.003Z,11.00
2018-06-19T13:52:16.286Z,8.37
2018-06-19T13:54:44.663Z,8.13
2018-06-19T13:57:26.736Z,10.37
2018-06-19T13:59:55.222Z,10.60
2018-06-19T14:02:23.534Z,12.80
2018-06-19T14:04:51.969Z,11.03
2018-06-19T14:07:21.473Z,8.73
2018-06-19T14:10:01.157Z,9.93
2018-06-19T14:13:12.836Z,11.30
2018-06-19T14:15:46.177Z,11.30
2018-06-19T14:18:15.369Z,8.17
2018-06-19T14:20:43.854Z,13.17
2018-06-19T14:23:12.677Z,8.53
2018-06-19T14:25:41.984Z,12.20
2018-06-19T14:28:11.253Z,12.23
2018-06-19T14:30:39.573Z,15.00
2018-06-19T14:33:07.909Z,11.43
2018-06-19T14:35:36.229Z,12.23
2018-06-19T14:38:04.535Z,10.13
2018-06-19T14:40:32.812Z,12.97
2018-06-19T14:43:01.685Z,11.10
2018-06-19T14:45:30.142Z,12.10
2018-06-19T14:47:58.478Z,12.07
2018-06-19T14:50:26.785Z,9.03
2018-06-19T14:52:55.065Z,15.23
2018-06-19T14:55:23.695Z,10.40
2018-06-19T14:57:52.080Z,10.70
2018-06-19T15:00:20.437Z,9.53
2018-06-19T15:02:48.717Z,11.37
2018-06-19T15:05:17.003Z,10.00
2018-06-19T15:07:50.553Z,10.33
2018-06-19T15:10:18.655Z,10.07
2018-06-19T15:12:46.934Z,10.47
2018-06-19T15:15:15.260Z,10.00
2018-06-19T15:17:43.573Z,13.07
2018-06-19T15:20:11.885Z,14.00
2018-06-19T15:22:40.178Z,11.03
2018-06-19T15:25:08.519Z,12.00
2018-06-19T15:27:37.639Z,10.03
2018-06-19T15:30:06.129Z,10.17
2018-06-19T15:32:34.499Z,12.00
2018-06-19T15:35:02.793Z,13.67
2018-06-19T15:37:31.132Z,14.07
2018-06-19T15:39:59.397Z,11.23
2018-06-19T15:42:27.678Z,11.40
2018-06-19T15:44:55.969Z,9.87
2018-06-19T15:47:24.841Z,10.10
2018-06-19T15:49:53.225Z,10.37
2018-06-19T15:52:21.542Z,8.53
2018-06-19T15:54:50.096Z,13.33
2018-06-19T15:57:18.907Z,12.33
2018-06-19T15:59:47.658Z,11.37
2018-06-19T16:02:15.941Z,11.87
2018-06-19T16:04:45.237Z,10.87
2018-06-19T16:07:14.298Z,9.87
2018-06-19T16:09:42.652Z,10.37
2018-06-19T16:12:14.031Z,11.30
2018-06-19T16:14:42.768Z,10.03
2018-06-19T16:17:11.849Z,9.70
2018-06-19T16:19:40.285Z,10.10
2018-06-19T16:22:08.661Z,9.37
2018-06-19T16:24:37.241Z,11.23
2018-06-19T16:27:05.633Z,9.63
2018-06-19T16:29:34.085Z,11.37
2018-06-19T16:32:02.442Z,11.00
2018-06-19T16:34:30.789Z,12.53
2018-06-19T16:36:59.205Z,9.80
2018-06-19T16:39:27.656Z,11.13
2018-06-19T16:41:56.381Z,11.70
2018-06-19T16:44:24.725Z,9.40
2018-06-19T16:46:53.114Z,10.43
2018-06-19T16:49:21.240Z,7.93
2018-06-19T16:51:49.984Z,11.13
2018-06-19T16:54:19.449Z,10.27
2018-06-19T16:56:47.653Z,9.70
2018-06-19T16:59:16.591Z,12.87
2018-06-19T17:01:45.942Z,10.30
2018-06-19T17:04:14.338Z,12.40
2018-06-19T17:06:42.679Z,9.70
2018-06-19T17:09:11.099Z,8.37
2018-06-19T17:11:39.513Z,12.60
2018-06-19T17:14:07.965Z,12.20
2018-06-19T17:16:36.373Z,12.43
2018-06-19T17:19:05.446Z,10.83
2018-06-19T17:21:33.791Z,9.53
2018-06-19T17:24:02.169Z,9.53
2018-06-19T17:26:30.273Z,10.17
2018-06-19T17:28:58.645Z,14.63
2018-06-19T17:31:27.011Z,9.90
2018-06-19T17:33:55.843Z,12.60
2018-06-19T17:36:24.237Z,12.67
2018-06-19T17:38:52.685Z,10.83
2018-06-19T17:41:21.146Z,11.23
2018-06-19T17:43:49.509Z,11.80
2018-06-19T17:46:17.954Z,10.80
2018-06-19T17:48:46.861Z,12.40
2018-06-19T17:51:15.248Z,13.80
2018-06-19T17:53:43.740Z,13.80
2018-06-19T17:56:12.211Z,12.60
2018-06-19T17:58:40.590Z,9.87
2018-06-19T18:01:09.189Z,12.27
2018-06-19T18:03:37.316Z,12.07
2018-06-19T18:06:05.709Z,11.90
2018-06-19T18:08:34.211Z,13.80
2018-06-19T18:11:02.437Z,10.47
2018-06-19T18:13:30.740Z,15.97
2018-06-19T18:15:59.098Z,9.30
2018-06-19T18:18:27.607Z,12.00
2018-06-19T18:20:56.162Z,10.17
2018-06-19T18:23:24.623Z,11.97
2018-06-19T18:25:53.069Z,11.10
2018-06-19T18:28:21.430Z,10.60
2018-06-19T18:30:49.872Z,9.23
2018-06-19T18:33:18.536Z,13.33
2018-06-19T18:35:46.869Z,11.80
2018-06-19T18:38:15.251Z,12.47
2018-06-19T18:40:43.653Z,8.23
2018-06-19T18:43:11.728Z,9.87
2018-06-19T18:45:40.224Z,9.30
2018-06-19T18:48:08.610Z,9.13
2018-06-19T18:50:37.189Z,9.07
2018-06-19T18:53:05.605Z,8.50
2018-06-19T18:55:34.354Z,8.87
2018-06-19T18:58:02.677Z,9.60
2018-06-19T19:00:31.542Z,11.33
2018-06-19T19:03:00.663Z,8.97
2018-06-19T19:05:29.606Z,9.43
2018-06-19T19:07:58.494Z,9.80
2018-06-19T19:10:33.469Z,10.83
2018-06-19T19:13:02.980Z,8.77
2018-06-19T19:15:37.702Z,8.33
2018-06-19T19:18:12.025Z,7.60
2018-06-19T19:20:41.530Z,11.30
2018-06-19T19:23:10.357Z,10.57
2018-06-19T19:25:49.204Z,9.67
2018-06-19T19:28:27.716Z,9.80
2018-06-19T19:30:58.719Z,7.70
2018-06-19T19:33:29.211Z,10.80
2018-06-19T19:35:58.295Z,9.80
2018-06-19T19:38:32.358Z,9.10
2018-06-19T19:41:01.154Z,12.13
2018-06-19T19:43:29.813Z,11.23
2018-06-19T19:45:58.353Z,10.37
2018-06-19T19:48:32.177Z,12.43
2018-06-19T19:51:00.744Z,10.77
2018-06-19T19:53:28.995Z,11.80
2018-06-19T19:56:02.860Z,13.60
2018-06-19T19:58:37.230Z,8.60
2018-06-19T20:01:05.850Z,8.97
2018-06-19T20:03:34.307Z,8.93
2018-06-19T20:06:03.566Z,11.27
2018-06-19T20:08:32.247Z,13.47
2018-06-19T20:11:00.571Z,14.00
2018-06-19T20:13:28.894Z,13.23
2018-06-19T20:15:57.260Z,11.57
2018-06-19T20:18:25.605Z,14.87
2018-06-19T20:20:53.930Z,14.43
2018-06-19T20:23:23.026Z,13.80
2018-06-19T20:25:51.380Z,11.67
2018-06-19T20:28:19.698Z,13.07
2018-06-19T20:30:48.030Z,15.60
2018-06-19T20:33:16.169Z,13.07
2018-06-19T20:35:44.851Z,11.97
2018-06-19T20:38:13.345Z,16.87
2018-06-19T20:40:41.766Z,13.75
2018-06-19T20:43:10.269Z,12.90
2018-06-19T20:45:38.717Z,13.80
2018-06-19T20:48:07.069Z,11.90
2018-06-19T20:50:35.467Z,13.50
2018-06-19T20:53:03.834Z,11.30
2018-06-19T20:55:32.173Z,14.98
2018-06-19T20:58:00.497Z,11.03
2018-06-19T21:00:28.709Z,12.87
2018-06-19T21:02:57.094Z,12.67
2018-06-19T21:05:25.423Z,11.73
2018-06-19T21:07:53.835Z,11.70
2018-06-19T21:10:22.278Z,14.80
2018-06-19T21:12:50.750Z,12.37
2018-06-19T21:15:19.384Z,12.10
2018-06-19T21:17:47.803Z,12.47
2018-06-19T21:20:16.170Z,15.00
2018-06-19T21:22:44.591Z,12.63
2018-06-19T21:25:12.669Z,15.57
2018-06-19T21:27:41.014Z,12.93
2018-06-19T21:30:09.418Z,15.10
2018-06-19T21:32:37.753Z,11.57
2018-06-19T21:35:06.123Z,12.80
2018-06-19T21:37:34.594Z,14.20
2018-06-19T21:40:02.950Z,15.67
2018-06-19T21:42:31.157Z,18.77
2018-06-19T21:44:59.481Z,16.83
2018-06-19T21:47:27.825Z,17.35
2018-06-19T21:49:56.160Z,17.47
2018-06-19T21:52:24.522Z,16.13
2018-06-19T21:54:52.921Z,17.20
2018-06-19T21:57:21.093Z,18.17
2018-06-19T21:59:49.610Z,17.07
2018-06-19T22:02:24.135Z,18.50
2018-06-19T22:04:52.790Z,17.80
2018-06-19T22:07:21.191Z,18.40
2018-06-19T22:09:49.579Z,19.40
2018-06-19T22:12:18.051Z,17.57
2018-06-19T22:14:46.418Z,18.73
2018-06-19T22:17:14.852Z,19.30
2018-06-19T22:19:43.414Z,19.63
2018-06-19T22:22:11.861Z,19.90
2018-06-19T22:24:40.256Z,20.70
2018-06-19T22:27:08.782Z,22.53
2018-06-19T22:29:37.184Z,21.90
2018-06-19T22:32:05.382Z,19.60
2018-06-19T22:34:33.700Z,20.50
2018-06-19T22:37:02.008Z,22.30
2018-06-19T22:39:30.318Z,21.80
2018-06-19T22:41:58.660Z,26.33
2018-06-19T22:44:27.129Z,22.57
2018-06-19T22:46:55.940Z,25.60
2018-06-19T22:49:24.316Z,23.17
2018-06-19T22:51:52.528Z,23.73
2018-06-19T22:54:21.016Z,27.40
2018-06-19T22:56:49.369Z,21.23
2018-06-19T22:59:17.825Z,24.87
2018-06-19T23:01:46.161Z,27.27
2018-06-19T23:04:15.297Z,30.37
2018-06-19T23:06:43.641Z,31.10
2018-06-19T23:09:11.976Z,32.73
2018-06-19T23:11:40.434Z,30.57
2018-06-19T23:14:08.786Z,29.23
2018-06-19T23:16:37.110Z,28.43
2018-06-19T23:19:05.618Z,25.87
2018-06-19T23:21:33.921Z,25.00
2018-06-19T23:24:02.244Z,29.07
2018-06-19T23:26:30.585Z,27.03
2018-06-19T23:28:59.221Z,28.20
2018-06-19T23:31:27.552Z,31.23
2018-06-19T23:33:55.905Z,26.97
2018-06-19T23:36:24.330Z,30.00
2018-06-19T23:38:52.686Z,32.90
2018-06-19T23:41:21.079Z,28.77
2018-06-19T23:43:49.437Z,29.60
2018-06-19T23:46:18.843Z,33.20
2018-06-19T23:48:47.277Z,36.40
2018-06-19T23:51:15.619Z,38.85
2018-06-19T23:53:44.578Z,32.83
2018-06-19T23:56:12.922Z,30.70
2018-06-19T23:58:41.348Z,32.87
